createdAt,value
2018-07-25T00:02:20.916Z,24.37
2018-07-25T00:04:48.736Z,24.23
2018-07-25T00:07:16.928Z,24.90
2018-07-25T00:09:45.074Z,25.57
2018-07-25T00:12:13.130Z,26.02
2018-07-25T00:14:41.224Z,27.30
2018-07-25T00:17:09.485Z,25.02
2018-07-25T00:19:37.682Z,24.75
2018-07-25T00:22:05.915Z,23.85
2018-07-25T00:24:34.211Z,24.37
2018-07-25T00:27:02.404Z,25.15
2018-07-25T00:29:30.477Z,25.05
2018-07-25T00:31:58.545Z,24.27
2018-07-25T00:34:26.754Z,23.60
2018-07-25T00:36:54.783Z,25.10
2018-07-25T00:39:22.849Z,24.67
2018-07-25T00:41:50.943Z,26.30
2018-07-25T00:44:19.092Z,24.63
2018-07-25T00:46:47.288Z,26.33
2018-07-25T00:49:15.274Z,26.35
2018-07-25T00:51:43.305Z,26.30
2018-07-25T00:54:11.511Z,24.50
2018-07-25T00:56:39.587Z,24.18
2018-07-25T00:59:07.740Z,23.35
2018-07-25T01:01:35.959Z,24.50
2018-07-25T01:04:04.248Z,24.27
2018-07-25T01:06:32.383Z,26.17
2018-07-25T01:09:00.445Z,25.52
2018-07-25T01:11:28.529Z,27.37
2018-07-25T01:13:56.620Z,26.90
2018-07-25T01:16:24.678Z,28.25
2018-07-25T01:18:52.729Z,28.17
2018-07-25T01:21:20.837Z,28.50
2018-07-25T01:23:49.088Z,28.23
2018-07-25T01:26:17.161Z,27.67
2018-07-25T01:28:45.343Z,29.00
2018-07-25T01:31:13.525Z,27.37
2018-07-25T01:33:41.564Z,28.05
2018-07-25T01:36:09.365Z,28.30
2018-07-25T01:38:37.513Z,29.33
2018-07-25T01:41:05.646Z,27.98
2018-07-25T01:43:33.687Z,28.42
2018-07-25T01:46:01.730Z,28.57
2018-07-25T01:48:29.854Z,28.15
2018-07-25T01:50:58.233Z,28.80
2018-07-25T01:53:26.293Z,27.48
2018-07-25T01:55:54.356Z,28.20
2018-07-25T01:58:22.404Z,27.02
2018-07-25T02:01:02.262Z,27.67
2018-07-25T02:03:41.015Z,26.90
2018-07-25T02:06:11.848Z,26.77
2018-07-25T02:08:44.999Z,26.53
2018-07-25T02:11:15.260Z,26.75
2018-07-25T02:13:48.409Z,26.67
2018-07-25T02:16:18.375Z,26.55
2018-07-25T02:18:49.116Z,25.92
2018-07-25T02:21:17.198Z,25.00
2018-07-25T02:23:45.248Z,25.00
2018-07-25T02:26:13.313Z,25.77
2018-07-25T02:28:41.510Z,24.85
2018-07-25T02:31:09.731Z,24.52
2018-07-25T02:33:43.115Z,24.20
2018-07-25T02:36:11.344Z,24.72
2018-07-25T02:38:39.436Z,24.40
2018-07-25T02:41:07.486Z,25.32
2018-07-25T02:43:35.595Z,24.50
2018-07-25T02:46:03.748Z,25.37
2018-07-25T02:48:31.926Z,25.52
2018-07-25T02:51:00.120Z,25.10
2018-07-25T02:53:28.249Z,24.37
2018-07-25T02:55:56.583Z,25.08
2018-07-25T02:58:24.626Z,25.12
2018-07-25T03:00:52.885Z,25.55
2018-07-25T03:03:20.913Z,25.30
2018-07-25T03:05:49.356Z,24.75
2018-07-25T03:08:17.752Z,25.52
2018-07-25T03:10:52.046Z,25.70
2018-07-25T03:13:20.744Z,26.55
2018-07-25T03:16:09.195Z,25.45
2018-07-25T03:18:37.680Z,25.90
2018-07-25T03:21:05.804Z,25.80
2018-07-25T03:23:35.088Z,26.35
2018-07-25T03:26:03.541Z,26.75
2018-07-25T03:28:31.749Z,26.48
2018-07-25T03:31:00.690Z,25.95
2018-07-25T03:33:28.797Z,24.95
2018-07-25T03:35:57.997Z,25.25
2018-07-25T03:38:26.711Z,25.10
2018-07-25T03:40:55.148Z,24.85
2018-07-25T03:43:23.414Z,26.40
2018-07-25T03:45:52.017Z,26.85
2018-07-25T03:48:35.647Z,27.15
2018-07-25T03:51:04.208Z,25.72
2018-07-25T03:53:32.278Z,25.17
2018-07-25T03:56:00.671Z,25.03
2018-07-25T03:58:29.595Z,25.25
2018-07-25T04:00:57.750Z,25.47
2018-07-25T04:03:25.804Z,25.48
2018-07-25T04:05:53.912Z,23.73
2018-07-25T04:08:22.065Z,24.20
2018-07-25T04:10:50.113Z,24.65
2018-07-25T04:13:19.180Z,22.65
2018-07-25T04:15:47.411Z,22.17
2018-07-25T04:18:15.465Z,23.00
2018-07-25T04:20:43.569Z,21.15
2018-07-25T04:23:11.629Z,21.95
2018-07-25T04:25:39.725Z,22.13
2018-07-25T04:28:07.753Z,22.30
2018-07-25T04:30:35.851Z,22.50
2018-07-25T04:33:04.213Z,22.50
2018-07-25T04:35:32.328Z,21.30
2018-07-25T04:38:00.486Z,22.00
2018-07-25T04:40:28.700Z,22.00
2018-07-25T04:42:57.057Z,21.00
2018-07-25T04:45:25.147Z,21.52
2018-07-25T04:47:53.190Z,21.12
2018-07-25T04:50:21.327Z,21.15
2018-07-25T04:52:49.384Z,21.57
2018-07-25T04:55:17.378Z,21.20
2018-07-25T04:57:45.555Z,21.07
2018-07-25T05:00:13.768Z,20.92
2018-07-25T05:02:41.912Z,20.65
2018-07-25T05:05:10.002Z,19.15
2018-07-25T05:07:38.056Z,20.40
2018-07-25T05:10:06.241Z,19.83
2018-07-25T05:12:34.485Z,20.25
2018-07-25T05:15:02.581Z,19.27
2018-07-25T05:17:30.664Z,19.70
2018-07-25T05:19:58.961Z,19.37
2018-07-25T05:22:27.021Z,18.50
2018-07-25T05:24:55.185Z,17.45
2018-07-25T05:27:23.268Z,18.17
2018-07-25T05:29:51.324Z,17.15
2018-07-25T05:32:19.640Z,17.07
2018-07-25T05:34:47.885Z,16.85
2018-07-25T05:37:15.967Z,17.65
2018-07-25T05:39:44.166Z,17.62
2018-07-25T05:42:12.415Z,17.20
2018-07-25T05:44:40.517Z,17.20
2018-07-25T05:47:08.676Z,18.20
2018-07-25T05:49:36.863Z,17.27
2018-07-25T05:52:04.917Z,18.02
2018-07-25T05:54:33.078Z,17.20
2018-07-25T05:57:01.272Z,17.27
2018-07-25T05:59:29.463Z,18.00
2018-07-25T06:01:57.622Z,16.73
2018-07-25T06:04:25.986Z,17.73
2018-07-25T06:06:54.068Z,17.20
2018-07-25T06:09:22.148Z,17.00
2018-07-25T06:11:50.305Z,18.40
2018-07-25T06:14:18.473Z,18.50
2018-07-25T06:16:46.608Z,18.10
2018-07-25T06:19:14.649Z,17.40
2018-07-25T06:21:42.828Z,16.90
2018-07-25T06:24:10.888Z,17.85
2018-07-25T06:26:38.956Z,16.87
2018-07-25T06:29:07.141Z,17.67
2018-07-25T06:31:35.221Z,17.00
2018-07-25T06:34:03.507Z,16.97
2018-07-25T06:36:31.554Z,15.68
2018-07-25T06:38:59.641Z,16.60
2018-07-25T06:41:27.682Z,16.60
2018-07-25T06:43:56.008Z,15.95
2018-07-25T06:46:24.127Z,16.62
2018-07-25T06:48:52.358Z,15.23
2018-07-25T06:51:20.395Z,15.90
2018-07-25T06:53:48.595Z,15.80
2018-07-25T06:56:16.847Z,16.30
2018-07-25T06:58:44.943Z,15.60
2018-07-25T07:01:13.082Z,15.60
2018-07-25T07:03:40.863Z,15.60
2018-07-25T07:06:08.987Z,15.38
2018-07-25T07:08:36.996Z,15.23
2018-07-25T07:11:04.792Z,15.00
2018-07-25T07:13:32.988Z,13.98
2018-07-25T07:16:01.122Z,14.43
2018-07-25T07:18:29.010Z,14.00
2018-07-25T07:20:57.186Z,13.70
2018-07-25T07:23:25.501Z,13.40
2018-07-25T07:25:53.678Z,13.05
2018-07-25T07:28:21.944Z,12.93
2018-07-25T07:30:49.999Z,13.10
2018-07-25T07:33:18.081Z,13.90
2018-07-25T07:35:46.145Z,12.33
2018-07-25T07:38:14.206Z,12.55
2018-07-25T07:40:42.303Z,12.90
2018-07-25T07:43:10.365Z,12.95
2018-07-25T07:45:38.459Z,11.90
2018-07-25T07:48:06.616Z,12.55
2018-07-25T07:50:34.779Z,12.23
2018-07-25T07:53:02.879Z,12.47
2018-07-25T07:55:30.929Z,12.80
2018-07-25T07:57:59.084Z,12.03
2018-07-25T08:00:27.196Z,12.10
2018-07-25T08:02:55.360Z,12.65
2018-07-25T08:05:24.386Z,11.48
2018-07-25T08:07:52.434Z,13.40
2018-07-25T08:10:20.671Z,11.60
2018-07-25T08:12:48.464Z,12.75
2018-07-25T08:15:16.559Z,12.80
2018-07-25T08:17:44.675Z,12.13
2018-07-25T08:20:12.669Z,12.35
2018-07-25T08:22:40.760Z,13.40
2018-07-25T08:25:08.842Z,13.05
2018-07-25T08:27:36.993Z,12.30
2018-07-25T08:30:05.549Z,12.28
2018-07-25T08:32:33.579Z,11.78
2018-07-25T08:35:01.626Z,11.10
2018-07-25T08:37:29.929Z,11.70
2018-07-25T08:39:57.963Z,11.95
2018-07-25T08:42:25.975Z,12.25
2018-07-25T08:44:54.047Z,11.83
2018-07-25T08:47:22.384Z,12.37
2018-07-25T08:49:50.303Z,11.50
2018-07-25T08:52:18.356Z,12.70
2018-07-25T08:54:46.419Z,12.78
2018-07-25T08:57:14.533Z,12.05
2018-07-25T08:59:42.660Z,12.05
2018-07-25T09:02:10.889Z,12.15
2018-07-25T09:04:39.013Z,11.50
2018-07-25T09:07:07.116Z,11.65
2018-07-25T09:09:35.293Z,10.93
2018-07-25T09:12:03.563Z,11.23
2018-07-25T09:14:31.727Z,11.65
2018-07-25T09:16:59.815Z,12.00
2018-07-25T09:19:28.044Z,11.30
2018-07-25T09:21:55.829Z,10.70
2018-07-25T09:24:24.022Z,11.08
2018-07-25T09:26:52.098Z,11.20
2018-07-25T09:29:20.285Z,10.87
2018-07-25T09:31:48.564Z,10.40
2018-07-25T09:34:16.718Z,11.90
2018-07-25T09:36:44.806Z,11.75
2018-07-25T09:39:12.948Z,11.45
2018-07-25T09:41:41.054Z,10.70
2018-07-25T09:44:09.241Z,11.80
2018-07-25T09:46:37.297Z,10.98
2018-07-25T09:49:05.761Z,10.82
2018-07-25T09:51:33.848Z,11.28
2018-07-25T09:54:02.026Z,10.40
2018-07-25T09:56:30.099Z,11.20
2018-07-25T09:58:58.308Z,10.88
2018-07-25T10:01:26.728Z,10.53
2018-07-25T10:03:54.957Z,9.35
2018-07-25T10:06:22.999Z,9.75
2018-07-25T10:08:51.154Z,9.38
2018-07-25T10:11:19.345Z,8.83
2018-07-25T10:13:47.525Z,8.55
2018-07-25T10:16:15.708Z,8.55
2018-07-25T10:18:43.841Z,7.90
2018-07-25T10:21:11.840Z,8.30
2018-07-25T10:23:40.034Z,8.08
2018-07-25T10:26:08.077Z,8.10
2018-07-25T10:28:36.213Z,7.87
2018-07-25T10:31:04.342Z,7.50
2018-07-25T10:33:32.408Z,7.58
2018-07-25T10:36:00.617Z,7.03
2018-07-25T10:38:28.653Z,7.90
2018-07-25T10:40:56.765Z,8.55
2018-07-25T10:43:25.074Z,7.67
2018-07-25T10:45:53.103Z,8.10
2018-07-25T10:48:21.307Z,7.70
2018-07-25T10:50:49.361Z,7.92
2018-07-25T10:53:17.537Z,7.72
2018-07-25T10:55:45.708Z,7.95
2018-07-25T10:58:13.791Z,7.97
2018-07-25T11:00:41.956Z,8.08
2018-07-25T11:03:09.996Z,7.45
2018-07-25T11:05:38.201Z,7.62
2018-07-25T11:08:06.585Z,7.90
2018-07-25T11:10:34.737Z,8.10
2018-07-25T11:13:02.988Z,8.15
2018-07-25T11:15:30.798Z,7.83
2018-07-25T11:17:58.849Z,7.90
2018-07-25T11:20:26.968Z,7.87
2018-07-25T11:22:55.024Z,7.50
2018-07-25T11:25:23.060Z,7.70
2018-07-25T11:27:51.268Z,34.35
2018-07-25T11:30:19.428Z,16.20
2018-07-25T11:32:47.697Z,10.30
2018-07-25T11:35:15.793Z,8.65
2018-07-25T11:37:43.940Z,7.60
2018-07-25T11:40:12.165Z,7.12
2018-07-25T11:42:40.072Z,32.83
2018-07-25T11:45:07.983Z,16.17
2018-07-25T11:47:36.135Z,8.08
2018-07-25T11:50:04.588Z,19.00
2018-07-25T11:52:32.620Z,7.10
2018-07-25T11:55:00.671Z,8.30
2018-07-25T11:57:28.860Z,7.58
2018-07-25T11:59:57.069Z,18.77
2018-07-25T12:02:25.228Z,8.43
2018-07-25T12:04:53.385Z,8.63
2018-07-25T12:07:21.686Z,7.10
2018-07-25T12:09:49.732Z,7.60
2018-07-25T12:12:17.800Z,7.50
2018-07-25T12:14:45.895Z,7.00
2018-07-25T12:17:14.153Z,7.00
2018-07-25T12:19:42.242Z,7.40
2018-07-25T12:22:10.514Z,7.00
2018-07-25T12:24:38.682Z,7.10
2018-07-25T12:27:06.783Z,6.70
2018-07-25T12:29:34.832Z,7.62
2018-07-25T12:32:03.028Z,7.25
2018-07-25T12:34:31.077Z,7.90
2018-07-25T12:36:59.366Z,6.78
2018-07-25T12:39:27.541Z,7.35
2018-07-25T12:41:55.721Z,6.60
2018-07-25T12:44:23.886Z,6.65
2018-07-25T12:46:51.972Z,6.30
2018-07-25T12:49:20.123Z,6.83
2018-07-25T12:51:48.445Z,6.60
2018-07-25T12:54:16.853Z,6.80
2018-07-25T12:56:44.961Z,6.85
2018-07-25T12:59:13.156Z,7.47
2018-07-25T13:01:41.256Z,6.70
2018-07-25T13:04:09.502Z,6.80
2018-07-25T13:06:37.803Z,7.20
2018-07-25T13:09:08.885Z,7.83
2018-07-25T13:11:37.333Z,8.40
2018-07-25T13:14:05.479Z,8.10
2018-07-25T13:16:33.744Z,6.97
2018-07-25T13:19:02.105Z,7.22
2018-07-25T13:21:30.213Z,7.25
2018-07-25T13:23:58.491Z,7.20
2018-07-25T13:26:26.656Z,7.85
2018-07-25T13:28:54.933Z,8.50
2018-07-25T13:31:22.986Z,8.58
2018-07-25T13:33:51.317Z,7.60
2018-07-25T13:36:19.349Z,7.72
2018-07-25T13:38:47.545Z,7.70
2018-07-25T13:41:15.720Z,7.12
2018-07-25T13:43:43.792Z,7.25
2018-07-25T13:46:12.079Z,7.10
2018-07-25T13:48:40.116Z,7.62
2018-07-25T13:51:08.432Z,8.75
2018-07-25T13:53:36.589Z,6.90
2018-07-25T13:56:04.848Z,5.40
2018-07-25T13:58:33.058Z,5.20
2018-07-25T14:01:01.093Z,5.50
2018-07-25T14:03:29.301Z,6.80
2018-07-25T14:05:57.469Z,6.60
2018-07-25T14:08:25.619Z,5.80
2018-07-25T14:10:53.826Z,6.60
2018-07-25T14:13:21.992Z,6.70
2018-07-25T14:15:50.168Z,6.00
2018-07-25T14:18:18.273Z,5.70
2018-07-25T14:20:47.168Z,5.40
2018-07-25T14:23:15.536Z,6.10
2018-07-25T14:25:43.986Z,5.72
2018-07-25T14:28:12.495Z,5.70
2018-07-25T14:30:40.988Z,5.77
2018-07-25T14:33:09.025Z,5.20
2018-07-25T14:35:37.282Z,5.70
2018-07-25T14:38:05.903Z,5.90
2018-07-25T14:40:34.177Z,5.50
2018-07-25T14:43:02.322Z,5.42
2018-07-25T14:45:30.763Z,5.47
2018-07-25T14:47:58.904Z,5.50
2018-07-25T14:50:27.211Z,6.15
2018-07-25T14:52:55.700Z,5.70
2018-07-25T14:55:23.832Z,6.07
2018-07-25T14:57:52.127Z,5.67
2018-07-25T15:00:20.281Z,5.90
2018-07-25T15:02:48.526Z,5.90
2018-07-25T15:05:16.652Z,6.22
2018-07-25T15:07:44.728Z,5.70
2018-07-25T15:10:12.912Z,5.28
2018-07-25T15:12:43.069Z,6.10
2018-07-25T15:15:11.750Z,5.78
2018-07-25T15:17:39.776Z,5.72
2018-07-25T15:20:08.928Z,5.70
2018-07-25T15:22:36.979Z,5.90
2018-07-25T15:25:05.721Z,5.77
2018-07-25T15:27:34.178Z,5.75
2018-07-25T15:30:02.625Z,5.60
2018-07-25T15:32:31.063Z,5.77
2018-07-25T15:35:05.357Z,6.13
2018-07-25T15:37:33.698Z,11.78
2018-07-25T15:40:01.752Z,6.72
2018-07-25T15:42:29.956Z,4.80
2018-07-25T15:44:58.082Z,5.33
2018-07-25T15:47:26.213Z,6.78
2018-07-25T15:49:54.245Z,7.30
2018-07-25T15:52:22.673Z,6.00
2018-07-25T15:54:50.908Z,6.25
2018-07-25T15:57:19.012Z,5.83
2018-07-25T15:59:47.304Z,6.17
2018-07-25T16:02:15.456Z,6.10
2018-07-25T16:04:43.693Z,6.80
2018-07-25T16:07:12.096Z,6.60
2018-07-25T16:09:40.752Z,6.67
2018-07-25T16:12:08.957Z,5.30
2018-07-25T16:14:37.036Z,6.12
2018-07-25T16:17:06.322Z,4.90
2018-07-25T16:19:36.454Z,5.35
2018-07-25T16:22:05.742Z,6.72
2018-07-25T16:24:34.155Z,7.40
2018-07-25T16:27:02.540Z,7.50
2018-07-25T16:29:30.986Z,8.10
2018-07-25T16:31:59.318Z,8.15
2018-07-25T16:34:27.228Z,7.53
2018-07-25T16:36:55.549Z,7.80
2018-07-25T16:39:23.676Z,6.90
2018-07-25T16:41:51.800Z,6.45
2018-07-25T16:44:20.157Z,6.45
2018-07-25T16:46:48.465Z,6.87
2018-07-25T16:49:16.600Z,6.50
2018-07-25T16:51:44.704Z,6.55
2018-07-25T16:54:13.148Z,6.65
2018-07-25T16:56:41.452Z,6.40
2018-07-25T16:59:09.620Z,6.70
2018-07-25T17:01:37.718Z,6.60
2018-07-25T17:04:05.916Z,6.78
2018-07-25T17:06:34.139Z,6.10
2018-07-25T17:09:02.209Z,5.53
2018-07-25T17:11:30.294Z,5.85
2018-07-25T17:13:58.260Z,6.20
2018-07-25T17:16:26.332Z,5.78
2018-07-25T17:18:54.695Z,6.30
2018-07-25T17:21:22.753Z,5.80
2018-07-25T17:23:50.723Z,6.05
2018-07-25T17:26:18.701Z,5.90
2018-07-25T17:28:46.733Z,6.08
2018-07-25T17:31:14.794Z,6.20
2018-07-25T17:33:42.823Z,6.17
2018-07-25T17:36:10.924Z,6.53
2018-07-25T17:38:39.056Z,6.47
2018-07-25T17:41:07.030Z,5.97
2018-07-25T17:43:35.046Z,5.90
2018-07-25T17:46:03.293Z,6.40
2018-07-25T17:48:31.267Z,6.22
2018-07-25T17:50:59.254Z,6.62
2018-07-25T17:53:27.376Z,6.60
2018-07-25T17:55:55.209Z,6.87
2018-07-25T17:58:23.484Z,7.42
2018-07-25T18:00:51.457Z,7.37
2018-07-25T18:03:19.458Z,7.70
2018-07-25T18:05:47.396Z,8.28
2018-07-25T18:08:15.391Z,7.67
2018-07-25T18:10:43.445Z,7.87
2018-07-25T18:13:16.973Z,7.65
2018-07-25T18:15:44.801Z,8.10
2018-07-25T18:18:12.801Z,8.60
2018-07-25T18:20:40.791Z,8.60
2018-07-25T18:23:08.807Z,8.00
2018-07-25T18:25:36.871Z,7.28
2018-07-25T18:28:04.913Z,7.10
2018-07-25T18:30:32.745Z,6.03
2018-07-25T18:33:00.770Z,4.50
2018-07-25T18:35:28.903Z,5.15
2018-07-25T18:37:56.885Z,5.37
2018-07-25T18:40:24.883Z,5.62
2018-07-25T18:42:53.145Z,5.40
2018-07-25T18:45:21.222Z,5.60
2018-07-25T18:47:49.307Z,5.70
2018-07-25T18:50:17.317Z,5.83
2018-07-25T18:52:45.321Z,5.60
2018-07-25T18:55:13.281Z,5.62
2018-07-25T18:57:41.272Z,5.58
2018-07-25T19:00:10.456Z,5.75
2018-07-25T19:02:38.497Z,5.70
2018-07-25T19:05:06.740Z,5.30
2018-07-25T19:07:34.551Z,5.67
2018-07-25T19:10:02.589Z,5.30
2018-07-25T19:12:30.458Z,4.90
2018-07-25T19:15:03.895Z,4.20
2018-07-25T19:17:31.849Z,5.00
2018-07-25T19:20:02.008Z,4.37
2018-07-25T19:22:31.307Z,4.50
2018-07-25T19:24:59.319Z,4.28
2018-07-25T19:27:35.127Z,4.40
2018-07-25T19:30:05.838Z,4.08
2018-07-25T19:32:36.238Z,5.00
2018-07-25T19:35:06.143Z,5.00
2018-07-25T19:37:36.762Z,4.97
2018-07-25T19:40:07.461Z,4.30
2018-07-25T19:42:37.366Z,4.20
2018-07-25T19:45:05.459Z,5.20
2018-07-25T19:47:33.484Z,5.03
2018-07-25T19:50:01.282Z,5.87
2018-07-25T19:52:29.348Z,5.40
2018-07-25T19:54:57.321Z,5.50
2018-07-25T19:57:25.252Z,5.85
2018-07-25T19:59:53.276Z,5.00
2018-07-25T20:02:21.203Z,5.85
2018-07-25T20:04:48.968Z,5.85
2018-07-25T20:07:16.949Z,5.50
2018-07-25T20:09:44.896Z,6.15
2018-07-25T20:12:12.829Z,6.37
2018-07-25T20:14:46.445Z,7.05
2018-07-25T20:17:15.087Z,6.85
2018-07-25T20:19:43.139Z,7.30
2018-07-25T20:22:11.151Z,7.20
2018-07-25T20:24:39.056Z,6.72
2018-07-25T20:27:07.052Z,7.58
2018-07-25T20:29:34.845Z,7.50
2018-07-25T20:32:02.756Z,7.20
2018-07-25T20:34:30.654Z,7.62
2018-07-25T20:36:58.640Z,7.53
2018-07-25T20:39:26.467Z,7.28
2018-07-25T20:41:54.375Z,7.67
2018-07-25T20:44:22.186Z,7.80
2018-07-25T20:46:50.111Z,7.55
2018-07-25T20:49:17.876Z,7.75
2018-07-25T20:51:45.825Z,7.50
2018-07-25T20:54:13.783Z,8.20
2018-07-25T20:56:41.793Z,8.40
2018-07-25T20:59:09.520Z,7.70
2018-07-25T21:01:37.512Z,7.25
2018-07-25T21:04:05.488Z,6.90
2018-07-25T21:06:33.520Z,6.58
2018-07-25T21:09:01.441Z,6.60
2018-07-25T21:11:29.214Z,6.87
2018-07-25T21:13:57.141Z,6.30
2018-07-25T21:16:25.065Z,6.60
2018-07-25T21:18:53.045Z,7.17
2018-07-25T21:21:21.040Z,6.20
2018-07-25T21:23:48.956Z,6.45
2018-07-25T21:26:16.746Z,6.62
2018-07-25T21:28:44.741Z,6.83
2018-07-25T21:31:12.659Z,7.55
2018-07-25T21:33:40.417Z,6.47
2018-07-25T21:36:08.359Z,6.90
2018-07-25T21:38:36.371Z,6.70
2018-07-25T21:41:04.118Z,6.42
2018-07-25T21:43:32.101Z,6.85
2018-07-25T21:46:00.414Z,6.42
2018-07-25T21:48:28.467Z,6.83
2018-07-25T21:50:56.453Z,6.90
2018-07-25T21:53:24.397Z,7.28
2018-07-25T21:55:52.326Z,7.50
2018-07-25T21:58:20.254Z,6.80
2018-07-25T22:00:57.942Z,7.10
2018-07-25T22:03:25.853Z,6.80
2018-07-25T22:05:53.848Z,6.65
2018-07-25T22:08:21.846Z,6.50
2018-07-25T22:10:49.808Z,6.50
2018-07-25T22:13:17.740Z,6.00
2018-07-25T22:15:45.675Z,6.30
2018-07-25T22:18:13.635Z,6.40
2018-07-25T22:20:41.400Z,6.50
2018-07-25T22:23:09.375Z,6.40
2018-07-25T22:25:37.316Z,6.42
2018-07-25T22:28:05.379Z,6.45
2018-07-25T22:30:33.331Z,6.90
2018-07-25T22:33:01.359Z,6.28
2018-07-25T22:35:29.305Z,6.28
2018-07-25T22:37:57.218Z,7.30
2018-07-25T22:40:25.174Z,7.10
2018-07-25T22:42:53.137Z,6.60
2018-07-25T22:45:20.924Z,6.90
2018-07-25T22:47:48.840Z,6.70
2018-07-25T22:50:16.832Z,6.70
2018-07-25T22:52:44.620Z,6.90
2018-07-25T22:55:12.930Z,7.45
2018-07-25T22:57:41.003Z,7.08
2018-07-25T23:00:09.257Z,6.20
2018-07-25T23:02:37.378Z,6.10
2018-07-25T23:05:05.398Z,6.90
2018-07-25T23:07:33.344Z,7.50
2018-07-25T23:10:01.287Z,7.00
2018-07-25T23:12:29.328Z,6.80
2018-07-25T23:14:57.298Z,6.90
2018-07-25T23:17:25.496Z,6.70
2018-07-25T23:19:53.502Z,7.20
2018-07-25T23:22:21.428Z,6.60
2018-07-25T23:24:49.428Z,7.42
2018-07-25T23:27:17.384Z,7.90
2018-07-25T23:29:45.309Z,6.40
2018-07-25T23:32:13.265Z,7.00
2018-07-25T23:34:41.040Z,7.10
2018-07-25T23:37:08.833Z,7.70
2018-07-25T23:39:36.784Z,7.05
2018-07-25T23:42:04.764Z,8.33
2018-07-25T23:44:32.684Z,8.03
2018-07-25T23:47:00.610Z,8.70
2018-07-25T23:49:28.570Z,8.65
2018-07-25T23:51:56.553Z,9.78
2018-07-25T23:54:24.463Z,9.80
2018-07-25T23:56:52.459Z,9.28
2018-07-25T23:59:20.206Z,10.38
